Airfield :
LOGIN :

Register | Disclaimer

   EN    FR    IT 

 










Legend :    VFR   Marginal VFR   IFR   Intensive IFR   Very Intensive IFR
Visi :
Ceiling :
>= 8 km
>= 3000ft
5 to 8 km
1000 to 3000 ft
1500m to 5 km
500 to 1000 ft
800 to 1500m
200 to 500 ft
< 800m
< 200 ft
Symbols :   Thunderstorms  Fog  Heavy snow  Heavy precipitations  Wind > 20 kt
SIGMETs :     Misc.  Thunderstorms  Icing  Turbulence  Mountain Waves  Volcanic Ashes






- Airport Elevation : 348 ft
- IATA code : LDV


LFRJ - Landivisiau

CURRENT METAR :
  • 121600Z AUTO 31014KT 9999 BKN013 BKN021 BKN027 09/07 Q1007 TEMPO 4000 SHRA BKN015TCU

EXPIRED METARs :
  • 121530Z AUTO 30015KT 9999 BKN016 BKN021 BKN027 09/07 Q1007 TEMPO 4000 SHRA BKN015TCU
  • 121500Z AUTO 31015KT 9999 FEW010 BKN015 BKN020 10/07 Q1007 BECMG RA
  • 121430Z AUTO 31012KT 9999 BKN007/// BKN016/// BKN023/// ///TCU 09/08 Q1006 BECMG RA BKN020
  • 121400Z AUTO 33012KT 9999 -RA BKN007/// BKN015/// BKN047/// ///CB 09/08 Q1006 TEMPO 2500 RADZ BECMG 32015G25KT BKN020
  • 121330Z AUTO 33014KT 6000 RA BKN008/// BKN015/// BKN023/// ///CB 08/07 Q1005 TEMPO 2500 RADZ BECMG 32015G25KT BKN020

TAF TAF LFRJ
Valid from the 12 at 15:00 until the 13 at 00:00 UTC


121400Z 1215/1224 33012KT 7000 RA BKN007 BKN015 BKN047
BECMG 1215/1217 27010KT BKN020
TEMPO 1217/1224 4000 SHRA BKN015TCU



MET'MAP, your aeronautical weather chart ! - Copyright ORBIFLY December 2007 - Disclaimer

ORBIFLY MET'MAP TEAM :

Programming & Development : Alexandra Zaïnal
Concept & original design : Baudouin d'Aumeries
Assistance for programming : Marc-Olivier Méhu
Technical & hardware support : Manuel Goepfert

Contact : metmap@orbifly.com




SOURCES & CREDITS :

   NOAA